Hovedside
METAR-TAF:

METAR-TAF

Lufthavner :

Mexico by internasjonale lufthavn

Mexico by, Mexico

breddegrad: 19-26N, lengdegrad: 099-06W, høyde over havet: 2238 m

Gjeldene værobservasjon

Denne rapporten ble laget for 36 minutter siden, klokken 09:48 UTC
Vind 6 kt fra Øst-nordøst
Temperatur 8°C
Luftfuktighet 76%
Trykk 1027 hPa
Sikt: 12.9 km
Skyfri himmel

METAR: MMMX 190948Z 06006KT 8SM SKC 08/04 A3034 NOSIG RMK HZY

Tid: 04:24 (10:24 UTC)

Varsel

Denne rapporten ble laget for 6 timer og 2 minutter siden, klokken 04:22 UTC
Varsel gyldig fra 19. klokken 06 UTC til 20. klokken 12 UTC
Vind 4 kt fra Vest-sørvest
Sikt: 10 km
Skyfri himmel
Fra 19. klokken 1800 UTC
Vind 10 kt fra Sør-sørøst
Sikt: 10 km
Spredte skyer i en høyde av 8000 ft
Spredte skyer i en høyde av 22000 ft
Blir
fra 20. klokken 05 UTC til 20. klokken 07 UTC
Vind 5 kt fra Nord

TAF: MMMX 190422Z 1906/2012 24004KT P6SM SKC TX21/1921Z TN07/1912Z FM191800 16010KT P6SM SCT080 SCT220 BECMG 2005/2007 01005KT

Værobservasjoner og værvarsel for over 4000 flyplasser (METAR- og TAF-rapporter).

Tilgjengelige stasjoner er representert av de røde og gule prikkene på kartet.

Hold musepekeren over prikken for å se navnet på stasjonen.

Klikk så for å se værobservasjoner og -varsler.

For å forandre kartet kan du klikke på den grønne knappen med svart kryss for å zoome inn, på den grønne knappen med strek for å zoome ut, eller på de grønne pilene for å se tilstøtende kart.


METAR-TAF: